sensor_id;sensor_type;location;lat;lon;timestamp;pressure;altitude;pressure_sealevel;temperature;humidity
73245;BME280;61460;41.158;-73.238;2023-05-19T00:01:31;102618.89;;;22.35;35.50
73245;BME280;61460;41.158;-73.238;2023-05-19T00:04:02;102622.03;;;22.45;35.35
73245;BME280;61460;41.158;-73.238;2023-05-19T00:06:32;102624.61;;;22.44;35.16
73245;BME280;61460;41.158;-73.238;2023-05-19T00:09:04;102632.57;;;22.32;35.29
73245;BME280;61460;41.158;-73.238;2023-05-19T00:11:35;102626.94;;;22.41;35.03
73245;BME280;61460;41.158;-73.238;2023-05-19T00:14:06;102624.33;;;22.46;35.13
73245;BME280;61460;41.158;-73.238;2023-05-19T00:16:36;102625.75;;;22.66;35.04
73245;BME280;61460;41.158;-73.238;2023-05-19T00:19:06;102625.98;;;22.62;35.18
73245;BME280;61460;41.158;-73.238;2023-05-19T00:21:36;102628.57;;;22.65;35.15
73245;BME280;61460;41.158;-73.238;2023-05-19T00:24:07;102629.39;;;22.71;35.20
73245;BME280;61460;41.158;-73.238;2023-05-19T00:26:37;102626.02;;;22.68;35.13
73245;BME280;61460;41.158;-73.238;2023-05-19T00:29:08;102629.45;;;22.70;35.19
73245;BME280;61460;41.158;-73.238;2023-05-19T00:31:39;102638.11;;;22.66;35.30
73245;BME280;61460;41.158;-73.238;2023-05-19T00:34:09;102636.41;;;22.69;35.30
73245;BME280;61460;41.158;-73.238;2023-05-19T00:36:40;102634.27;;;22.68;35.41
73245;BME280;61460;41.158;-73.238;2023-05-19T00:39:11;102638.71;;;22.66;35.49
73245;BME280;61460;41.158;-73.238;2023-05-19T00:41:41;102643.45;;;22.74;35.44
73245;BME280;61460;41.158;-73.238;2023-05-19T00:44:12;102645.63;;;22.73;35.50
73245;BME280;61460;41.158;-73.238;2023-05-19T00:46:43;102651.39;;;22.68;35.60
73245;BME280;61460;41.158;-73.238;2023-05-19T00:49:13;102657.85;;;22.73;35.61
73245;BME280;61460;41.158;-73.238;2023-05-19T00:51:44;102661.29;;;22.68;35.77
73245;BME280;61460;41.158;-73.238;2023-05-19T00:54:15;102667.51;;;22.61;35.95
73245;BME280;61460;41.158;-73.238;2023-05-19T00:56:45;102672.84;;;22.62;35.96
73245;BME280;61460;41.158;-73.238;2023-05-19T00:59:16;102676.84;;;22.68;35.95
73245;BME280;61460;41.158;-73.238;2023-05-19T01:01:46;102682.63;;;22.71;35.97
73245;BME280;61460;41.158;-73.238;2023-05-19T01:04:18;102686.79;;;22.69;36.07
73245;BME280;61460;41.158;-73.238;2023-05-19T01:06:48;102689.17;;;22.73;36.10
73245;BME280;61460;41.158;-73.238;2023-05-19T01:09:18;102690.52;;;22.73;36.23
73245;BME280;61460;41.158;-73.238;2023-05-19T01:11:49;102689.71;;;22.74;36.10
73245;BME280;61460;41.158;-73.238;2023-05-19T01:14:20;102691.45;;;22.74;36.18
73245;BME280;61460;41.158;-73.238;2023-05-19T01:16:57;102695.76;;;22.63;36.41
73245;BME280;61460;41.158;-73.238;2023-05-19T01:19:30;102693.81;;;22.71;36.39
73245;BME280;61460;41.158;-73.238;2023-05-19T01:22:05;102698.96;;;22.77;36.23
73245;BME280;61460;41.158;-73.238;2023-05-19T01:24:33;102707.11;;;22.64;36.49
73245;BME280;61460;41.158;-73.238;2023-05-19T01:27:03;102709.28;;;22.77;36.36
73245;BME280;61460;41.158;-73.238;2023-05-19T01:31:57;102711.48;;;22.77;36.43
73245;BME280;61460;41.158;-73.238;2023-05-19T01:34:29;102721.15;;;22.85;36.33
73245;BME280;61460;41.158;-73.238;2023-05-19T01:36:57;102725.97;;;22.72;36.51
73245;BME280;61460;41.158;-73.238;2023-05-19T01:39:27;102732.44;;;22.74;36.54
73245;BME280;61460;41.158;-73.238;2023-05-19T01:41:57;102734.16;;;22.70;36.58
73245;BME280;61460;41.158;-73.238;2023-05-19T01:44:28;102741.70;;;22.65;36.72
73245;BME280;61460;41.158;-73.238;2023-05-19T01:46:58;102742.73;;;22.74;36.74
73245;BME280;61460;41.158;-73.238;2023-05-19T01:49:28;102747.08;;;22.68;36.84
73245;BME280;61460;41.158;-73.238;2023-05-19T01:51:59;102748.18;;;22.74;36.78
73245;BME280;61460;41.158;-73.238;2023-05-19T01:54:30;102755.38;;;22.79;36.73
73245;BME280;61460;41.158;-73.238;2023-05-19T01:57:08;102751.98;;;22.77;36.83
73245;BME280;61460;41.158;-73.238;2023-05-19T01:59:41;102752.35;;;22.76;36.91
73245;BME280;61460;41.158;-73.238;2023-05-19T02:02:07;102759.14;;;22.72;37.03
73245;BME280;61460;41.158;-73.238;2023-05-19T02:04:37;102766.57;;;22.82;36.92
73245;BME280;61460;41.158;-73.238;2023-05-19T02:07:10;102760.34;;;22.85;36.89
73245;BME280;61460;41.158;-73.238;2023-05-19T02:09:40;102766.11;;;22.93;36.81
73245;BME280;61460;41.158;-73.238;2023-05-19T02:12:11;102768.67;;;22.92;36.86
73245;BME280;61460;41.158;-73.238;2023-05-19T02:14:39;102763.98;;;22.83;37.00
73245;BME280;61460;41.158;-73.238;2023-05-19T02:17:06;102764.07;;;22.92;36.96
73245;BME280;61460;41.158;-73.238;2023-05-19T02:19:38;102768.22;;;22.89;37.03
73245;BME280;61460;41.158;-73.238;2023-05-19T02:22:07;102769.01;;;22.94;37.02
73245;BME280;61460;41.158;-73.238;2023-05-19T02:24:38;102761.57;;;22.95;37.03
73245;BME280;61460;41.158;-73.238;2023-05-19T02:27:08;102763.89;;;22.97;37.04
73245;BME280;61460;41.158;-73.238;2023-05-19T02:29:39;102762.43;;;22.92;37.12
73245;BME280;61460;41.158;-73.238;2023-05-19T02:32:10;102760.10;;;22.86;37.30
73245;BME280;61460;41.158;-73.238;2023-05-19T02:34:40;102753.87;;;22.82;37.44
73245;BME280;61460;41.158;-73.238;2023-05-19T02:37:11;102759.66;;;22.84;37.54
73245;BME280;61460;41.158;-73.238;2023-05-19T02:39:42;102760.95;;;22.91;37.60
73245;BME280;61460;41.158;-73.238;2023-05-19T02:42:12;102753.29;;;22.90;37.50
73245;BME280;61460;41.158;-73.238;2023-05-19T02:44:43;102749.29;;;22.99;37.27
73245;BME280;61460;41.158;-73.238;2023-05-19T02:47:13;102748.95;;;22.94;37.73
73245;BME280;61460;41.158;-73.238;2023-05-19T02:49:44;102751.63;;;23.09;37.22
73245;BME280;61460;41.158;-73.238;2023-05-19T02:52:15;102753.78;;;23.04;37.32
73245;BME280;61460;41.158;-73.238;2023-05-19T02:54:45;102754.06;;;23.11;37.16
73245;BME280;61460;41.158;-73.238;2023-05-19T02:57:16;102760.71;;;23.18;37.01
73245;BME280;61460;41.158;-73.238;2023-05-19T02:59:46;102759.16;;;23.11;37.14
73245;BME280;61460;41.158;-73.238;2023-05-19T03:02:17;102753.63;;;23.15;37.06
73245;BME280;61460;41.158;-73.238;2023-05-19T03:04:48;102758.26;;;23.13;37.14
73245;BME280;61460;41.158;-73.238;2023-05-19T03:07:18;102762.48;;;23.13;37.15
73245;BME280;61460;41.158;-73.238;2023-05-19T03:09:49;102761.10;;;23.20;37.10
73245;BME280;61460;41.158;-73.238;2023-05-19T03:12:20;102760.99;;;23.21;37.08
73245;BME280;61460;41.158;-73.238;2023-05-19T03:14:50;102761.03;;;23.19;37.12
73245;BME280;61460;41.158;-73.238;2023-05-19T03:17:21;102768.71;;;23.26;36.99
73245;BME280;61460;41.158;-73.238;2023-05-19T03:19:52;102759.59;;;23.25;37.03
73245;BME280;61460;41.158;-73.238;2023-05-19T03:22:22;102757.26;;;23.12;37.16
73245;BME280;61460;41.158;-73.238;2023-05-19T03:24:53;102767.40;;;23.26;36.88
73245;BME280;61460;41.158;-73.238;2023-05-19T03:27:24;102760.13;;;23.21;36.91
73245;BME280;61460;41.158;-73.238;2023-05-19T03:29:54;102755.24;;;23.22;36.86
73245;BME280;61460;41.158;-73.238;2023-05-19T03:32:25;102759.03;;;23.25;36.77
73245;BME280;61460;41.158;-73.238;2023-05-19T03:34:55;102757.82;;;23.29;36.67
73245;BME280;61460;41.158;-73.238;2023-05-19T03:37:26;102757.80;;;23.25;36.74
73245;BME280;61460;41.158;-73.238;2023-05-19T03:39:57;102752.49;;;23.22;36.80
73245;BME280;61460;41.158;-73.238;2023-05-19T03:42:27;102758.72;;;23.35;36.51
73245;BME280;61460;41.158;-73.238;2023-05-19T03:44:58;102755.90;;;23.18;36.80
73245;BME280;61460;41.158;-73.238;2023-05-19T03:47:29;102752.68;;;23.33;36.54
73245;BME280;61460;41.158;-73.238;2023-05-19T03:49:59;102758.70;;;23.26;36.68
73245;BME280;61460;41.158;-73.238;2023-05-19T03:52:30;102753.07;;;23.24;36.67
73245;BME280;61460;41.158;-73.238;2023-05-19T03:55:01;102754.04;;;23.19;36.77
73245;BME280;61460;41.158;-73.238;2023-05-19T03:57:31;102753.69;;;23.19;36.78
73245;BME280;61460;41.158;-73.238;2023-05-19T04:00:02;102756.67;;;23.29;36.59
73245;BME280;61460;41.158;-73.238;2023-05-19T04:02:32;102756.55;;;23.19;36.80
73245;BME280;61460;41.158;-73.238;2023-05-19T04:05:04;102755.37;;;23.22;36.86
73245;BME280;61460;41.158;-73.238;2023-05-19T04:07:34;102761.02;;;23.24;36.88
73245;BME280;61460;41.158;-73.238;2023-05-19T04:10:06;102763.73;;;23.21;36.94
73245;BME280;61460;41.158;-73.238;2023-05-19T04:12:35;102760.81;;;23.17;37.06
73245;BME280;61460;41.158;-73.238;2023-05-19T04:15:07;102759.08;;;23.26;36.92
73245;BME280;61460;41.158;-73.238;2023-05-19T04:17:37;102758.11;;;23.21;37.03
73245;BME280;61460;41.158;-73.238;2023-05-19T04:20:08;102763.96;;;23.28;36.92
73245;BME280;61460;41.158;-73.238;2023-05-19T04:22:38;102765.11;;;23.16;37.20
73245;BME280;61460;41.158;-73.238;2023-05-19T04:25:09;102763.31;;;23.06;37.44
73245;BME280;61460;41.158;-73.238;2023-05-19T04:27:39;102762.67;;;23.08;37.52
73245;BME280;61460;41.158;-73.238;2023-05-19T04:30:10;102767.14;;;23.10;37.51
73245;BME280;61460;41.158;-73.238;2023-05-19T04:32:40;102770.96;;;23.08;37.56
73245;BME280;61460;41.158;-73.238;2023-05-19T04:35:11;102764.60;;;23.08;37.61
73245;BME280;61460;41.158;-73.238;2023-05-19T04:37:42;102765.26;;;23.14;37.56
73245;BME280;61460;41.158;-73.238;2023-05-19T04:40:12;102764.59;;;23.12;37.64
73245;BME280;61460;41.158;-73.238;2023-05-19T04:42:43;102763.12;;;23.12;37.73
73245;BME280;61460;41.158;-73.238;2023-05-19T04:45:14;102763.47;;;23.08;37.92
73245;BME280;61460;41.158;-73.238;2023-05-19T04:47:44;102761.76;;;23.08;38.01
73245;BME280;61460;41.158;-73.238;2023-05-19T04:50:15;102761.43;;;23.15;37.87
73245;BME280;61460;41.158;-73.238;2023-05-19T04:52:45;102759.35;;;23.06;38.08
73245;BME280;61460;41.158;-73.238;2023-05-19T04:55:16;102758.68;;;23.01;38.14
73245;BME280;61460;41.158;-73.238;2023-05-19T04:57:47;102752.25;;;23.11;37.98
73245;BME280;61460;41.158;-73.238;2023-05-19T05:00:19;102750.99;;;23.15;37.87
73245;BME280;61460;41.158;-73.238;2023-05-19T05:02:48;102748.38;;;23.03;38.09
73245;BME280;61460;41.158;-73.238;2023-05-19T05:05:19;102749.30;;;23.11;37.98
73245;BME280;61460;41.158;-73.238;2023-05-19T05:07:50;102750.13;;;23.08;37.99
73245;BME280;61460;41.158;-73.238;2023-05-19T05:10:20;102743.14;;;23.08;38.05
73245;BME280;61460;41.158;-73.238;2023-05-19T05:12:51;102742.71;;;22.96;38.36
73245;BME280;61460;41.158;-73.238;2023-05-19T05:15:22;102743.97;;;23.06;38.34
73245;BME280;61460;41.158;-73.238;2023-05-19T05:17:53;102742.49;;;23.01;38.47
73245;BME280;61460;41.158;-73.238;2023-05-19T05:20:24;102737.56;;;23.12;38.31
73245;BME280;61460;41.158;-73.238;2023-05-19T05:22:54;102738.99;;;23.09;38.38
73245;BME280;61460;41.158;-73.238;2023-05-19T05:25:24;102740.75;;;23.11;38.44
73245;BME280;61460;41.158;-73.238;2023-05-19T05:27:55;102734.04;;;23.19;38.35
73245;BME280;61460;41.158;-73.238;2023-05-19T05:30:25;102733.76;;;23.20;38.28
73245;BME280;61460;41.158;-73.238;2023-05-19T05:32:56;102734.45;;;23.14;38.45
73245;BME280;61460;41.158;-73.238;2023-05-19T05:35:27;102731.76;;;23.15;38.37
73245;BME280;61460;41.158;-73.238;2023-05-19T05:37:57;102735.35;;;23.16;38.29
73245;BME280;61460;41.158;-73.238;2023-05-19T05:40:28;102731.87;;;23.20;38.16
73245;BME280;61460;41.158;-73.238;2023-05-19T05:42:58;102731.76;;;23.26;38.04
73245;BME280;61460;41.158;-73.238;2023-05-19T05:45:29;102730.44;;;23.21;38.08
73245;BME280;61460;41.158;-73.238;2023-05-19T05:48:00;102729.03;;;23.16;38.15
73245;BME280;61460;41.158;-73.238;2023-05-19T05:50:31;102723.80;;;23.34;37.85
73245;BME280;61460;41.158;-73.238;2023-05-19T05:53:02;102724.27;;;23.22;38.08
73245;BME280;61460;41.158;-73.238;2023-05-19T05:55:32;102715.70;;;23.13;38.24
73245;BME280;61460;41.158;-73.238;2023-05-19T05:58:02;102716.73;;;23.12;38.27
73245;BME280;61460;41.158;-73.238;2023-05-19T06:00:33;102712.23;;;23.02;38.42
73245;BME280;61460;41.158;-73.238;2023-05-19T06:03:04;102711.72;;;23.16;38.21
73245;BME280;61460;41.158;-73.238;2023-05-19T06:05:34;102705.92;;;22.98;38.53
73245;BME280;61460;41.158;-73.238;2023-05-19T06:08:05;102703.74;;;23.08;38.31
73245;BME280;61460;41.158;-73.238;2023-05-19T06:10:35;102696.41;;;23.04;38.38
73245;BME280;61460;41.158;-73.238;2023-05-19T06:13:06;102698.76;;;23.11;38.23
73245;BME280;61460;41.158;-73.238;2023-05-19T06:15:37;102703.29;;;23.06;38.35
73245;BME280;61460;41.158;-73.238;2023-05-19T06:18:07;102701.78;;;22.98;38.47
73245;BME280;61460;41.158;-73.238;2023-05-19T06:20:38;102699.71;;;23.00;38.46
73245;BME280;61460;41.158;-73.238;2023-05-19T06:23:09;102696.40;;;23.07;38.38
73245;BME280;61460;41.158;-73.238;2023-05-19T06:25:39;102695.99;;;23.09;38.33
73245;BME280;61460;41.158;-73.238;2023-05-19T06:28:10;102695.53;;;23.07;38.35
73245;BME280;61460;41.158;-73.238;2023-05-19T06:30:41;102691.37;;;22.99;38.55
73245;BME280;61460;41.158;-73.238;2023-05-19T06:33:11;102696.57;;;23.07;38.38
73245;BME280;61460;41.158;-73.238;2023-05-19T06:35:42;102689.30;;;23.06;38.54
73245;BME280;61460;41.158;-73.238;2023-05-19T06:38:13;102685.66;;;23.00;38.60
73245;BME280;61460;41.158;-73.238;2023-05-19T06:40:43;102687.83;;;23.06;38.55
73245;BME280;61460;41.158;-73.238;2023-05-19T06:43:14;102689.25;;;23.06;38.52
73245;BME280;61460;41.158;-73.238;2023-05-19T06:45:44;102689.06;;;23.08;38.41
73245;BME280;61460;41.158;-73.238;2023-05-19T06:48:15;102687.08;;;22.98;38.76
73245;BME280;61460;41.158;-73.238;2023-05-19T06:50:46;102684.30;;;23.06;38.49
73245;BME280;61460;41.158;-73.238;2023-05-19T06:53:18;102690.73;;;23.07;38.53
73245;BME280;61460;41.158;-73.238;2023-05-19T06:55:47;102680.14;;;23.07;38.67
73245;BME280;61460;41.158;-73.238;2023-05-19T06:58:18;102680.79;;;23.03;38.79
73245;BME280;61460;41.158;-73.238;2023-05-19T07:00:48;102684.36;;;22.97;38.99
73245;BME280;61460;41.158;-73.238;2023-05-19T07:03:19;102680.20;;;22.96;39.12
73245;BME280;61460;41.158;-73.238;2023-05-19T07:05:50;102682.61;;;22.96;39.32
73245;BME280;61460;41.158;-73.238;2023-05-19T07:08:20;102683.69;;;22.99;39.17
73245;BME280;61460;41.158;-73.238;2023-05-19T07:10:51;102683.29;;;22.92;39.24
73245;BME280;61460;41.158;-73.238;2023-05-19T07:13:22;102686.85;;;22.97;39.25
73245;BME280;61460;41.158;-73.238;2023-05-19T07:15:52;102685.12;;;23.04;39.07
73245;BME280;61460;41.158;-73.238;2023-05-19T07:18:23;102686.97;;;22.95;39.22
73245;BME280;61460;41.158;-73.238;2023-05-19T07:20:54;102682.05;;;22.98;39.05
73245;BME280;61460;41.158;-73.238;2023-05-19T07:23:24;102688.76;;;22.89;39.26
73245;BME280;61460;41.158;-73.238;2023-05-19T07:25:55;102685.82;;;22.96;39.06
73245;BME280;61460;41.158;-73.238;2023-05-19T07:28:26;102677.55;;;22.87;39.18
73245;BME280;61460;41.158;-73.238;2023-05-19T07:30:56;102684.65;;;22.90;39.08
73245;BME280;61460;41.158;-73.238;2023-05-19T07:33:27;102681.25;;;22.85;39.20
73245;BME280;61460;41.158;-73.238;2023-05-19T07:35:57;102679.46;;;22.86;39.10
73245;BME280;61460;41.158;-73.238;2023-05-19T07:38:29;102688.07;;;22.70;39.41
73245;BME280;61460;41.158;-73.238;2023-05-19T07:40:59;102685.74;;;22.74;39.40
73245;BME280;61460;41.158;-73.238;2023-05-19T07:43:29;102687.50;;;22.62;39.67
73245;BME280;61460;41.158;-73.238;2023-05-19T07:46:00;102693.23;;;22.63;39.60
73245;BME280;61460;41.158;-73.238;2023-05-19T07:48:31;102691.49;;;22.64;39.58
73245;BME280;61460;41.158;-73.238;2023-05-19T07:51:01;102689.04;;;22.50;39.90
73245;BME280;61460;41.158;-73.238;2023-05-19T07:53:32;102690.43;;;22.55;39.85
73245;BME280;61460;41.158;-73.238;2023-05-19T07:56:03;102692.25;;;22.58;39.77
73245;BME280;61460;41.158;-73.238;2023-05-19T07:58:33;102689.51;;;22.60;39.95
73245;BME280;61460;41.158;-73.238;2023-05-19T08:01:04;102693.83;;;22.61;39.93
73245;BME280;61460;41.158;-73.238;2023-05-19T08:03:34;102687.68;;;22.77;39.55
73245;BME280;61460;41.158;-73.238;2023-05-19T08:06:05;102691.50;;;22.67;39.77
73245;BME280;61460;41.158;-73.238;2023-05-19T08:08:35;102694.61;;;22.76;39.56
73245;BME280;61460;41.158;-73.238;2023-05-19T08:11:06;102690.44;;;22.73;39.67
73245;BME280;61460;41.158;-73.238;2023-05-19T08:13:37;102687.92;;;22.87;39.41
73245;BME280;61460;41.158;-73.238;2023-05-19T08:16:07;102686.68;;;22.75;39.94
73245;BME280;61460;41.158;-73.238;2023-05-19T08:18:38;102680.18;;;22.76;39.79
73245;BME280;61460;41.158;-73.238;2023-05-19T08:21:09;102683.30;;;22.63;40.16
73245;BME280;61460;41.158;-73.238;2023-05-19T08:23:39;102694.43;;;22.61;40.25
73245;BME280;61460;41.158;-73.238;2023-05-19T08:26:10;102692.06;;;22.56;40.28
73245;BME280;61460;41.158;-73.238;2023-05-19T08:28:41;102694.08;;;22.56;40.16
73245;BME280;61460;41.158;-73.238;2023-05-19T08:31:11;102692.52;;;22.54;40.17
73245;BME280;61460;41.158;-73.238;2023-05-19T08:33:42;102687.53;;;22.54;40.16
73245;BME280;61460;41.158;-73.238;2023-05-19T08:36:13;102689.13;;;22.56;40.04
73245;BME280;61460;41.158;-73.238;2023-05-19T08:38:43;102692.88;;;22.56;39.94
73245;BME280;61460;41.158;-73.238;2023-05-19T08:41:14;102688.36;;;22.61;40.26
73245;BME280;61460;41.158;-73.238;2023-05-19T08:43:45;102688.59;;;22.64;40.04
73245;BME280;61460;41.158;-73.238;2023-05-19T08:46:15;102691.30;;;22.67;39.95
73245;BME280;61460;41.158;-73.238;2023-05-19T08:48:47;102692.71;;;22.62;39.94
73245;BME280;61460;41.158;-73.238;2023-05-19T08:51:23;102694.20;;;22.66;39.79
73245;BME280;61460;41.158;-73.238;2023-05-19T08:53:50;102693.60;;;22.70;39.61
73245;BME280;61460;41.158;-73.238;2023-05-19T08:56:21;102692.23;;;22.73;39.47
73245;BME280;61460;41.158;-73.238;2023-05-19T08:58:50;102693.57;;;22.77;39.38
73245;BME280;61460;41.158;-73.238;2023-05-19T09:01:21;102691.41;;;22.78;39.29
73245;BME280;61460;41.158;-73.238;2023-05-19T09:03:51;102696.13;;;22.79;39.24
73245;BME280;61460;41.158;-73.238;2023-05-19T09:06:21;102697.91;;;22.69;39.42
73245;BME280;61460;41.158;-73.238;2023-05-19T09:08:51;102699.77;;;22.80;39.10
73245;BME280;61460;41.158;-73.238;2023-05-19T09:11:22;102696.15;;;22.70;39.28
73245;BME280;61460;41.158;-73.238;2023-05-19T09:13:53;102696.06;;;22.71;39.26
73245;BME280;61460;41.158;-73.238;2023-05-19T09:16:23;102704.77;;;22.71;39.21
73245;BME280;61460;41.158;-73.238;2023-05-19T09:18:55;102703.24;;;22.72;39.11
73245;BME280;61460;41.158;-73.238;2023-05-19T09:21:28;102708.00;;;22.60;39.33
73245;BME280;61460;41.158;-73.238;2023-05-19T09:23:55;102711.41;;;22.68;39.14
73245;BME280;61460;41.158;-73.238;2023-05-19T09:26:36;102712.16;;;22.71;39.11
73245;BME280;61460;41.158;-73.238;2023-05-19T09:28:57;102711.07;;;22.64;39.26
73245;BME280;61460;41.158;-73.238;2023-05-19T09:31:31;102711.34;;;22.68;39.19
73245;BME280;61460;41.158;-73.238;2023-05-19T09:33:58;102722.17;;;22.59;39.29
73245;BME280;61460;41.158;-73.238;2023-05-19T09:36:29;102718.71;;;22.62;39.26
73245;BME280;61460;41.158;-73.238;2023-05-19T09:38:59;102718.67;;;22.63;39.30
73245;BME280;61460;41.158;-73.238;2023-05-19T09:41:30;102716.00;;;22.48;40.58
73245;BME280;61460;41.158;-73.238;2023-05-19T09:44:00;102712.08;;;22.54;39.70
73245;BME280;61460;41.158;-73.238;2023-05-19T09:46:31;102716.47;;;22.48;39.74
73245;BME280;61460;41.158;-73.238;2023-05-19T09:49:07;102712.70;;;22.58;39.65
73245;BME280;61460;41.158;-73.238;2023-05-19T09:51:34;102719.12;;;22.52;39.83
73245;BME280;61460;41.158;-73.238;2023-05-19T09:54:03;102715.40;;;22.54;39.75
73245;BME280;61460;41.158;-73.238;2023-05-19T09:56:34;102722.93;;;22.52;39.78
73245;BME280;61460;41.158;-73.238;2023-05-19T09:59:06;102726.85;;;22.59;39.66
73245;BME280;61460;41.158;-73.238;2023-05-19T10:01:35;102724.92;;;22.63;39.70
73245;BME280;61460;41.158;-73.238;2023-05-19T10:04:06;102727.78;;;22.60;39.73
73245;BME280;61460;41.158;-73.238;2023-05-19T10:06:36;102738.29;;;22.53;40.62
73245;BME280;61460;41.158;-73.238;2023-05-19T10:09:07;102739.29;;;22.59;40.02
73245;BME280;61460;41.158;-73.238;2023-05-19T10:11:38;102737.23;;;22.58;39.94
73245;BME280;61460;41.158;-73.238;2023-05-19T10:14:09;102739.13;;;22.59;39.94
73245;BME280;61460;41.158;-73.238;2023-05-19T10:16:39;102735.44;;;22.68;39.80
73245;BME280;61460;41.158;-73.238;2023-05-19T10:19:10;102742.32;;;22.59;40.10
73245;BME280;61460;41.158;-73.238;2023-05-19T10:21:40;102743.31;;;22.70;39.93
73245;BME280;61460;41.158;-73.238;2023-05-19T10:24:11;102749.11;;;22.65;40.08
73245;BME280;61460;41.158;-73.238;2023-05-19T10:26:44;102743.82;;;22.73;39.99
73245;BME280;61460;41.158;-73.238;2023-05-19T10:29:16;102751.42;;;22.64;40.25
73245;BME280;61460;41.158;-73.238;2023-05-19T10:31:45;102748.14;;;22.75;40.09
73245;BME280;61460;41.158;-73.238;2023-05-19T10:34:22;102745.68;;;22.78;40.31
73245;BME280;61460;41.158;-73.238;2023-05-19T10:36:46;102751.65;;;22.88;40.34
73245;BME280;61460;41.158;-73.238;2023-05-19T10:39:17;102754.57;;;22.96;40.12
73245;BME280;61460;41.158;-73.238;2023-05-19T10:41:52;102749.56;;;22.86;40.38
73245;BME280;61460;41.158;-73.238;2023-05-19T10:44:30;102752.77;;;22.91;40.43
73245;BME280;61460;41.158;-73.238;2023-05-19T10:46:46;102757.31;;;22.92;40.36
73245;BME280;61460;41.158;-73.238;2023-05-19T10:49:20;102758.26;;;23.02;40.20
73245;BME280;61460;41.158;-73.238;2023-05-19T10:51:48;102758.51;;;23.00;40.24
73245;BME280;61460;41.158;-73.238;2023-05-19T10:56:48;102762.79;;;22.90;40.53
73245;BME280;61460;41.158;-73.238;2023-05-19T11:01:50;102762.81;;;22.90;40.32
73245;BME280;61460;41.158;-73.238;2023-05-19T11:06:51;102766.60;;;22.98;40.01
73245;BME280;61460;41.158;-73.238;2023-05-19T11:09:22;102767.26;;;23.09;39.83
73245;BME280;61460;41.158;-73.238;2023-05-19T11:11:53;102764.34;;;23.08;40.02
73245;BME280;61460;41.158;-73.238;2023-05-19T11:14:25;102764.50;;;23.12;40.05
73245;BME280;61460;41.158;-73.238;2023-05-19T11:16:56;102764.15;;;23.23;39.77
73245;BME280;61460;41.158;-73.238;2023-05-19T11:19:26;102763.45;;;23.22;39.86
73245;BME280;61460;41.158;-73.238;2023-05-19T11:21:55;102761.16;;;23.19;39.86
73245;BME280;61460;41.158;-73.238;2023-05-19T11:26:56;102765.33;;;23.36;39.54
73245;BME280;61460;41.158;-73.238;2023-05-19T11:29:26;102762.72;;;23.41;39.72
73245;BME280;61460;41.158;-73.238;2023-05-19T11:31:57;102761.71;;;23.46;39.62
73245;BME280;61460;41.158;-73.238;2023-05-19T11:34:28;102763.46;;;23.51;39.64
73245;BME280;61460;41.158;-73.238;2023-05-19T11:36:58;102767.70;;;23.42;40.27
73245;BME280;61460;41.158;-73.238;2023-05-19T11:39:28;102773.86;;;23.43;40.81
73245;BME280;61460;41.158;-73.238;2023-05-19T11:41:58;102771.46;;;23.07;41.63
73245;BME280;61460;41.158;-73.238;2023-05-19T11:44:29;102763.43;;;23.00;41.74
73245;BME280;61460;41.158;-73.238;2023-05-19T11:46:59;102771.63;;;22.98;41.74
73245;BME280;61460;41.158;-73.238;2023-05-19T11:49:30;102776.45;;;22.89;41.56
73245;BME280;61460;41.158;-73.238;2023-05-19T11:52:00;102774.41;;;22.82;42.53
73245;BME280;61460;41.158;-73.238;2023-05-19T11:54:32;102775.09;;;22.75;41.76
73245;BME280;61460;41.158;-73.238;2023-05-19T11:57:01;102781.61;;;22.72;41.86
73245;BME280;61460;41.158;-73.238;2023-05-19T11:59:32;102780.40;;;22.78;42.17
73245;BME280;61460;41.158;-73.238;2023-05-19T12:02:02;102780.89;;;22.89;42.49
73245;BME280;61460;41.158;-73.238;2023-05-19T12:04:32;102779.45;;;22.71;42.43
73245;BME280;61460;41.158;-73.238;2023-05-19T12:07:03;102782.39;;;22.68;41.65
73245;BME280;61460;41.158;-73.238;2023-05-19T12:09:33;102787.53;;;22.63;42.09
73245;BME280;61460;41.158;-73.238;2023-05-19T12:12:04;102783.01;;;22.64;42.00
73245;BME280;61460;41.158;-73.238;2023-05-19T12:14:34;102783.30;;;22.66;42.24
73245;BME280;61460;41.158;-73.238;2023-05-19T12:17:09;102782.04;;;22.64;42.88
73245;BME280;61460;41.158;-73.238;2023-05-19T12:19:35;102777.41;;;22.60;41.98
73245;BME280;61460;41.158;-73.238;2023-05-19T12:22:06;102785.76;;;22.60;42.09
73245;BME280;61460;41.158;-73.238;2023-05-19T12:24:36;102792.84;;;22.59;42.69
73245;BME280;61460;41.158;-73.238;2023-05-19T12:27:09;102794.14;;;22.56;41.91
73245;BME280;61460;41.158;-73.238;2023-05-19T12:29:37;102794.49;;;22.56;42.70
73245;BME280;61460;41.158;-73.238;2023-05-19T12:32:07;102786.66;;;22.61;42.82
73245;BME280;61460;41.158;-73.238;2023-05-19T12:34:38;102794.96;;;22.53;42.71
73245;BME280;61460;41.158;-73.238;2023-05-19T12:37:09;102796.97;;;22.52;42.16
73245;BME280;61460;41.158;-73.238;2023-05-19T12:39:40;102796.95;;;22.59;42.69
73245;BME280;61460;41.158;-73.238;2023-05-19T12:42:09;102797.89;;;22.48;42.61
73245;BME280;61460;41.158;-73.238;2023-05-19T12:44:43;102790.72;;;22.46;42.73
73245;BME280;61460;41.158;-73.238;2023-05-19T12:47:08;102789.85;;;22.47;42.25
73245;BME280;61460;41.158;-73.238;2023-05-19T12:52:08;102793.24;;;22.41;43.05
73245;BME280;61460;41.158;-73.238;2023-05-19T12:54:39;102793.60;;;22.47;41.93
73245;BME280;61460;41.158;-73.238;2023-05-19T12:57:10;102797.42;;;22.40;42.46
73245;BME280;61460;41.158;-73.238;2023-05-19T12:59:41;102793.58;;;22.43;42.31
73245;BME280;61460;41.158;-73.238;2023-05-19T13:02:09;102794.30;;;22.53;43.02